Time;durP1;ratioP1;P1;durP2;ratioP2;P2;SDS_P1;SDS_P2;PMS_P1;PMS_P2;Temp;Humidity;BMP_temperature;BMP_pressure;BME280_temperature;BME280_humidity;BME280_pressure;Samples;Min_cycle;Max_cycle;Signal;HPM_P1;HPM_P2
2023/09/14 00:01:06;;;;;;;11.67;3.77;;;;;;;17.38;71.46;100502.97;5085293;28;20526;-72
2023/09/14 00:03:32;;;;;;;15.77;4.45;;;;;;;17.41;71.47;100503.50;5084682;28;20307;-72
2023/09/14 00:05:57;;;;;;;10.40;4.53;;;;;;;17.36;71.72;100501.59;5084727;28;20080;-71
2023/09/14 00:08:22;;;;;;;14.35;4.68;;;;;;;17.39;71.98;100501.84;5084795;28;20341;-72
2023/09/14 00:10:55;;;;;;;8.55;3.40;;;;;;;17.44;71.78;100500.97;5084313;28;20032;-71
2023/09/14 00:13:20;;;;;;;11.98;3.60;;;;;;;17.50;71.93;100490.69;5084860;28;20040;-71
2023/09/14 00:15:45;;;;;;;11.95;3.83;;;;;;;17.50;71.60;100498.97;5084540;28;20817;-70
2023/09/14 00:18:11;;;;;;;14.93;4.65;;;;;;;17.47;71.59;100499.56;5084181;28;20028;-71
2023/09/14 00:20:36;;;;;;;21.33;4.43;;;;;;;17.43;71.26;100488.28;5085266;28;20104;-71
2023/09/14 00:23:03;;;;;;;13.93;3.67;;;;;;;17.35;71.12;100492.50;5085482;28;20981;-71
2023/09/14 00:25:28;;;;;;;8.88;3.40;;;;;;;17.30;71.37;100492.59;5085061;28;20249;-71
2023/09/14 00:27:54;;;;;;;9.77;4.05;;;;;;;17.26;71.34;100491.53;5085158;28;20036;-71
2023/09/14 00:30:20;;;;;;;11.80;4.85;;;;;;;17.25;71.51;100487.09;5084575;28;20032;-71
2023/09/14 00:32:47;;;;;;;11.90;4.18;;;;;;;17.25;71.22;100489.88;5084672;28;20082;-71
2023/09/14 00:35:13;;;;;;;11.77;4.88;;;;;;;17.17;71.14;100491.34;5084501;28;20028;-70
2023/09/14 00:37:40;;;;;;;12.45;5.50;;;;;;;17.10;71.30;100480.66;5084360;28;20119;-72
2023/09/14 00:40:07;;;;;;;10.25;5.32;;;;;;;17.09;71.43;100484.50;5084905;28;20044;-71
2023/09/14 00:42:43;;;;;;;18.25;5.72;;;;;;;17.04;71.55;100487.31;5084472;28;20048;-71
2023/09/14 00:45:12;;;;;;;12.07;6.45;;;;;;;17.05;71.37;100497.22;5084577;28;20062;-76
2023/09/14 00:47:38;;;;;;;15.57;7.80;;;;;;;17.04;71.42;100493.63;5085545;28;20059;-77
2023/09/14 00:50:04;;;;;;;22.13;6.40;;;;;;;17.03;71.46;100485.66;5085005;28;20036;-77
2023/09/14 00:52:31;;;;;;;9.07;4.82;;;;;;;17.04;71.02;100487.31;5085631;28;20043;-76
2023/09/14 00:54:57;;;;;;;9.68;4.60;;;;;;;17.04;70.99;100488.13;5084430;28;20130;-76
2023/09/14 00:57:22;;;;;;;11.27;5.18;;;;;;;17.04;71.18;100493.63;5085150;28;20131;-76
2023/09/14 00:59:49;;;;;;;11.48;4.78;;;;;;;17.09;71.84;100494.69;5084664;28;20054;-75
2023/09/14 01:02:15;;;;;;;11.95;3.83;;;;;;;17.09;71.38;100479.00;5085243;28;20040;-77
2023/09/14 01:04:41;;;;;;;8.68;3.78;;;;;;;17.05;71.25;100488.94;5084705;28;20050;-76
2023/09/14 01:07:06;;;;;;;11.55;3.88;;;;;;;17.07;71.53;100475.72;5084683;28;20055;-76
2023/09/14 01:09:31;;;;;;;15.40;6.63;;;;;;;17.06;71.16;100479.59;5084958;28;20024;-76
2023/09/14 01:11:57;;;;;;;9.73;5.53;;;;;;;17.03;71.14;100480.16;5084928;28;20040;-76
2023/09/14 01:14:37;;;;;;;14.55;5.47;;;;;;;17.03;70.79;100480.16;5084158;28;20020;-78
2023/09/14 01:17:12;;;;;;;13.68;4.70;;;;;;;16.91;70.81;100477.78;5084788;28;20027;-76
2023/09/14 01:19:49;;;;;;;9.60;4.72;;;;;;;16.91;70.57;100484.13;5084530;28;20112;-77
2023/09/14 01:22:52;;;;;;;24.60;6.43;;;;;;;16.89;70.60;100491.84;5084512;28;20715;-76
2023/09/14 01:25:22;;;;;;;9.60;4.50;;;;;;;16.84;70.84;100485.59;5084173;28;20042;-77
2023/09/14 01:27:48;;;;;;;9.15;3.47;;;;;;;16.79;71.30;100484.53;5085495;28;20046;-78
2023/09/14 01:30:13;;;;;;;11.52;5.00;;;;;;;16.77;71.44;100488.66;5084634;28;21198;-77
2023/09/14 01:32:39;;;;;;;10.20;5.50;;;;;;;16.75;71.54;100490.88;5084056;28;20051;-78
2023/09/14 01:35:05;;;;;;;14.20;6.57;;;;;;;16.75;71.82;100496.38;5083837;28;20036;-76
2023/09/14 01:37:30;;;;;;;22.17;6.68;;;;;;;16.68;71.57;100493.97;5083546;28;20036;-77
2023/09/14 01:39:57;;;;;;;14.95;6.40;;;;;;;16.61;71.54;100493.47;5084661;28;20043;-77
2023/09/14 01:42:23;;;;;;;12.93;6.07;;;;;;;16.59;71.71;100492.94;5084104;28;20894;-78
2023/09/14 01:44:50;;;;;;;13.30;7.20;;;;;;;16.53;71.28;100497.69;5082916;28;20089;-77
2023/09/14 01:47:16;;;;;;;14.40;5.45;;;;;;;16.53;71.37;100494.94;5084135;28;20085;-76
2023/09/14 01:49:42;;;;;;;17.20;4.90;;;;;;;16.54;71.45;100496.56;5084015;28;20028;-77
2023/09/14 01:52:07;;;;;;;13.07;4.82;;;;;;;16.50;71.06;100496.31;5084128;28;20176;-77
2023/09/14 01:54:33;;;;;;;8.73;3.95;;;;;;;16.49;70.98;100497.44;5082674;28;20036;-76
2023/09/14 01:56:58;;;;;;;13.63;4.30;;;;;;;16.46;70.92;100495.25;5083648;28;20039;-71
2023/09/14 01:59:23;;;;;;;10.23;3.30;;;;;;;16.38;70.99;100499.44;5083306;28;20150;-71
2023/09/14 02:01:49;;;;;;;7.53;3.37;;;;;;;16.32;70.94;100497.81;5083595;28;20036;-71
2023/09/14 02:04:14;;;;;;;9.68;3.35;;;;;;;16.37;70.77;100496.97;5082626;28;20313;-72
2023/09/14 02:06:39;;;;;;;6.13;3.10;;;;;;;16.40;71.07;100502.72;5082927;28;20048;-72
2023/09/14 02:09:05;;;;;;;12.40;3.47;;;;;;;16.44;71.43;100492.78;5082798;28;20300;-71
2023/09/14 02:11:31;;;;;;;14.35;4.65;;;;;;;16.42;71.31;100503.25;5082933;28;20048;-71
2023/09/14 02:13:56;;;;;;;8.30;2.33;;;;;;;16.42;71.38;100500.50;5082625;28;20028;-71
2023/09/14 02:16:22;;;;;;;13.15;2.85;;;;;;;16.44;71.55;100502.97;5082485;28;20024;-71
2023/09/14 02:18:47;;;;;;;8.50;2.22;;;;;;;16.49;71.16;100493.84;5082729;28;20091;-70
2023/09/14 02:21:12;;;;;;;6.87;2.40;;;;;;;16.46;71.03;100495.25;5083258;28;20044;-71
2023/09/14 02:23:38;;;;;;;10.50;2.50;;;;;;;16.51;71.11;100497.16;5082839;28;20260;-71
2023/09/14 02:26:03;;;;;;;7.40;2.15;;;;;;;16.50;71.00;100490.81;5082851;28;20038;-71
2023/09/14 02:28:28;;;;;;;10.60;3.70;;;;;;;16.51;71.25;100489.72;5083023;28;20035;-71
2023/09/14 02:30:53;;;;;;;10.60;2.50;;;;;;;16.51;71.05;100502.66;5083168;28;20346;-72
2023/09/14 02:33:19;;;;;;;7.70;2.33;;;;;;;16.50;71.15;100495.47;5082754;28;20265;-72
2023/09/14 02:35:50;;;;;;;8.88;2.33;;;;;;;16.52;71.21;100488.59;5082361;28;20268;-72
2023/09/14 02:38:16;;;;;;;8.23;2.85;;;;;;;16.54;71.33;100497.38;5083043;28;20075;-72
2023/09/14 02:40:41;;;;;;;8.90;3.65;;;;;;;16.59;71.47;100499.28;5083318;28;20063;-72
2023/09/14 02:43:07;;;;;;;9.77;2.60;;;;;;;16.59;71.45;100499.28;5086747;28;20036;-71
2023/09/14 02:45:32;;;;;;;15.75;2.92;;;;;;;16.58;71.26;100500.38;5086979;28;20264;-76
2023/09/14 02:47:57;;;;;;;9.88;2.70;;;;;;;16.62;71.24;100497.91;5087603;28;20028;-77
2023/09/14 02:50:22;;;;;;;10.27;2.40;;;;;;;16.60;71.28;100505.63;5087866;28;20168;-77
2023/09/14 02:52:48;;;;;;;8.77;2.00;;;;;;;16.55;71.48;100500.97;5087195;28;21076;-76
2023/09/14 02:55:13;;;;;;;9.70;3.37;;;;;;;16.58;71.08;100497.63;5087211;28;20707;-77
2023/09/14 02:57:38;;;;;;;9.27;3.08;;;;;;;16.52;71.39;100509.78;5088457;28;20253;-76
2023/09/14 03:00:11;;;;;;;6.43;2.40;;;;;;;16.50;71.75;100501.00;5087660;28;20028;-77
2023/09/14 03:02:37;;;;;;;17.15;3.10;;;;;;;16.54;72.09;100499.31;5087570;28;20043;-77
2023/09/14 03:05:02;;;;;;;15.02;3.05;;;;;;;16.63;71.93;100505.84;5087697;28;20036;-77
2023/09/14 03:07:28;;;;;;;7.60;2.35;;;;;;;16.63;71.98;100500.34;5087529;28;20497;-75
2023/09/14 03:09:53;;;;;;;6.50;2.40;;;;;;;16.69;71.95;100501.97;5087499;28;20056;-77
2023/09/14 03:12:19;;;;;;;9.57;3.03;;;;;;;16.69;71.91;100504.72;5087676;28;20127;-76
2023/09/14 03:14:45;;;;;;;6.50;2.37;;;;;;;16.72;72.16;100502.50;5086791;28;20044;-77
2023/09/14 03:17:10;;;;;;;7.35;2.17;;;;;;;16.74;72.09;100495.56;5087000;28;20359;-77
2023/09/14 03:19:35;;;;;;;13.38;2.95;;;;;;;16.75;72.37;100496.38;5087512;28;20493;-76
2023/09/14 03:22:01;;;;;;;10.07;3.05;;;;;;;16.76;72.24;100503.56;5086823;28;20477;-76
2023/09/14 03:24:26;;;;;;;10.95;2.78;;;;;;;16.78;72.34;100504.09;5086408;28;20036;-77
2023/09/14 03:26:51;;;;;;;27.30;3.83;;;;;;;16.79;72.37;100498.28;5086949;28;20036;-77
2023/09/14 03:29:16;;;;;;;14.50;3.27;;;;;;;16.85;72.40;100507.31;5086450;28;20252;-77
2023/09/14 03:31:42;;;;;;;9.20;3.40;;;;;;;16.92;72.31;100502.28;5087158;28;21035;-77
2023/09/14 03:34:07;;;;;;;11.07;2.50;;;;;;;16.95;72.22;100505.56;5086607;28;20128;-77
2023/09/14 03:36:33;;;;;;;7.33;2.43;;;;;;;16.95;71.85;100500.88;5087279;28;20630;-76
2023/09/14 03:38:58;;;;;;;12.57;3.17;;;;;;;16.97;71.88;100508.84;5087004;28;20441;-77
2023/09/14 03:41:23;;;;;;;7.33;2.87;;;;;;;16.96;71.77;100508.06;5086785;28;20680;-77
2023/09/14 03:43:48;;;;;;;7.37;3.27;;;;;;;16.93;71.86;100505.88;5086736;28;20278;-76
2023/09/14 03:46:14;;;;;;;8.32;2.35;;;;;;;16.91;71.85;100505.34;5086352;28;20630;-77
2023/09/14 03:48:40;;;;;;;19.52;3.35;;;;;;;16.94;71.90;100506.69;5085488;28;20572;-77
2023/09/14 03:51:06;;;;;;;8.60;3.10;;;;;;;16.96;72.11;100496.22;5085582;28;20024;-77
2023/09/14 03:53:31;;;;;;;6.45;2.55;;;;;;;16.94;72.23;100498.44;5084953;28;20050;-77
2023/09/14 03:55:59;;;;;;;9.38;2.55;;;;;;;16.97;72.15;100495.91;5086174;28;20425;-71
2023/09/14 03:58:25;;;;;;;9.82;3.15;;;;;;;16.97;72.41;100503.34;5085907;28;20131;-72
2023/09/14 04:00:51;;;;;;;15.52;3.60;;;;;;;16.98;72.27;100494.00;5085064;28;20489;-71
2023/09/14 04:03:17;;;;;;;7.03;2.55;;;;;;;16.95;72.85;100494.56;5085394;28;20044;-72
2023/09/14 04:05:43;;;;;;;10.63;4.47;;;;;;;17.03;72.87;100497.50;5084246;28;20042;-71
2023/09/14 04:08:08;;;;;;;11.07;4.38;;;;;;;17.12;72.75;100494.13;5085003;28;20039;-71
2023/09/14 04:10:37;;;;;;;11.18;4.28;;;;;;;17.24;72.51;100491.00;5085161;28;20036;-72
2023/09/14 04:13:27;;;;;;;11.05;4.07;;;;;;;17.34;72.20;100493.63;5085587;28;20047;-71
2023/09/14 04:15:53;;;;;;;13.82;4.40;;;;;;;17.32;72.08;100495.88;5085701;28;20043;-72
2023/09/14 04:18:18;;;;;;;9.23;3.58;;;;;;;17.35;72.08;100500.78;5085228;28;20028;-71
2023/09/14 04:20:44;;;;;;;9.50;4.33;;;;;;;17.34;72.19;100499.16;5085176;28;20582;-72
2023/09/14 04:23:09;;;;;;;12.10;3.58;;;;;;;17.29;72.08;100499.19;5085068;28;20252;-71
2023/09/14 04:25:34;;;;;;;11.48;4.05;;;;;;;17.26;72.41;100502.53;5084427;28;20040;-71
2023/09/14 04:27:59;;;;;;;9.57;3.55;;;;;;;17.17;72.18;100501.56;5084765;28;20720;-71
2023/09/14 04:30:25;;;;;;;10.73;3.50;;;;;;;17.16;72.17;100506.22;5084627;28;20933;-71
2023/09/14 04:32:50;;;;;;;10.57;3.50;;;;;;;17.10;72.29;100507.38;5085020;28;20293;-71
2023/09/14 04:35:16;;;;;;;11.80;3.20;;;;;;;17.12;72.66;100511.50;5084114;28;20256;-72
2023/09/14 04:37:41;;;;;;;12.18;4.07;;;;;;;17.12;72.34;100513.41;5084689;28;20020;-71
2023/09/14 04:40:09;;;;;;;9.40;3.63;;;;;;;17.13;72.90;100509.56;5084445;28;20035;-71
2023/09/14 04:42:34;;;;;;;9.50;4.18;;;;;;;17.17;72.78;100507.06;5084754;28;20043;-72
2023/09/14 04:44:59;;;;;;;9.98;3.67;;;;;;;17.20;73.25;100506.47;5083874;28;20032;-71
2023/09/14 04:47:24;;;;;;;13.10;4.37;;;;;;;17.18;72.89;100501.25;5084975;28;20042;-71
2023/09/14 04:49:50;;;;;;;12.45;4.75;;;;;;;17.19;73.00;100500.13;5084917;28;20256;-71
2023/09/14 04:52:15;;;;;;;11.82;5.07;;;;;;;17.24;73.17;100508.34;5084529;28;20710;-71
2023/09/14 04:54:40;;;;;;;15.90;5.00;;;;;;;17.32;72.81;100509.66;5083937;28;20055;-71
2023/09/14 04:57:05;;;;;;;11.10;3.60;;;;;;;17.38;72.83;100515.91;5084697;28;20260;-71
2023/09/14 04:59:31;;;;;;;6.83;2.77;;;;;;;17.31;72.21;100519.00;5084368;28;20256;-71
2023/09/14 05:01:56;;;;;;;14.90;5.63;;;;;;;17.25;72.38;100515.50;5084316;28;20322;-72
2023/09/14 05:04:21;;;;;;;10.00;3.20;;;;;;;17.17;72.45;100520.84;5083720;28;20638;-71
2023/09/14 05:06:47;;;;;;;7.67;2.70;;;;;;;17.15;72.90;100521.94;5085008;28;20280;-77
2023/09/14 05:09:12;;;;;;;8.20;3.95;;;;;;;17.14;72.98;100517.56;5085173;28;20260;-77
2023/09/14 05:11:37;;;;;;;9.63;3.63;;;;;;;17.17;73.01;100521.63;5085289;28;20032;-77
2023/09/14 05:14:03;;;;;;;10.40;3.47;;;;;;;17.15;73.05;100521.94;5084463;28;20050;-77
2023/09/14 05:16:28;;;;;;;8.52;3.28;;;;;;;17.14;73.13;100514.78;5085182;28;20032;-77
2023/09/14 05:18:53;;;;;;;10.30;3.65;;;;;;;17.16;73.21;100522.75;5084877;28;20122;-78
2023/09/14 05:21:19;;;;;;;8.50;4.00;;;;;;;17.18;73.32;100520.53;5084713;28;20044;-76
2023/09/14 05:23:45;;;;;;;16.70;5.88;;;;;;;17.19;73.15;100507.59;5084369;28;20807;-77
2023/09/14 05:26:10;;;;;;;15.32;7.32;;;;;;;17.21;73.23;100508.09;5085284;28;21224;-77
2023/09/14 05:28:35;;;;;;;15.70;5.65;;;;;;;17.23;73.21;100508.63;5084971;28;20035;-77
2023/09/14 05:31:00;;;;;;;14.20;5.33;;;;;;;17.20;73.44;100510.06;5084905;28;20028;-78
2023/09/14 05:33:26;;;;;;;10.80;4.33;;;;;;;17.20;73.37;100517.47;5084129;28;20276;-77
2023/09/14 05:35:51;;;;;;;14.23;5.00;;;;;;;17.22;73.15;100515.25;5084922;28;20273;-78
2023/09/14 05:38:17;;;;;;;14.85;5.03;;;;;;;17.21;73.34;100510.84;5084728;28;20249;-77
2023/09/14 05:40:42;;;;;;;9.95;3.70;;;;;;;17.17;73.34;100513.38;5084742;28;20039;-78
2023/09/14 05:43:07;;;;;;;10.07;4.30;;;;;;;17.18;73.15;100519.72;5084158;28;21000;-77
2023/09/14 05:45:33;;;;;;;9.55;3.97;;;;;;;17.22;73.45;100515.25;5083336;28;20249;-77
2023/09/14 05:48:00;;;;;;;16.20;4.47;;;;;;;17.22;73.38;100510.56;5084827;28;20031;-77
2023/09/14 05:50:25;;;;;;;16.30;6.05;;;;;;;17.27;73.32;100517.94;5083895;28;20031;-76
2023/09/14 05:52:50;;;;;;;13.77;4.67;;;;;;;17.29;73.16;100523.19;5084497;28;20032;-76
2023/09/14 05:55:16;;;;;;;10.70;4.00;;;;;;;17.33;72.79;100521.50;5083099;28;20738;-77
2023/09/14 05:57:41;;;;;;;12.32;4.57;;;;;;;17.33;72.92;100514.03;5084729;28;20762;-77
2023/09/14 06:00:12;;;;;;;12.50;5.20;;;;;;;17.40;72.85;100519.19;5083939;28;20854;-77
2023/09/14 06:02:38;;;;;;;17.08;4.75;;;;;;;17.38;72.40;100530.53;5084291;28;21389;-77
2023/09/14 06:05:03;;;;;;;12.10;4.20;;;;;;;17.45;72.70;100527.41;5081798;28;20074;-77
2023/09/14 06:07:29;;;;;;;16.40;5.80;;;;;;;17.47;72.54;100538.16;5083459;28;20052;-77
2023/09/14 06:09:54;;;;;;;15.27;5.87;;;;;;;17.45;72.86;100532.91;5082143;28;20074;-77
2023/09/14 06:12:20;;;;;;;15.53;5.50;;;;;;;17.49;72.77;100533.97;5083766;28;20286;-76
2023/09/14 06:14:45;;;;;;;13.23;5.05;;;;;;;17.56;72.68;100533.63;5083134;28;20275;-76
2023/09/14 06:17:10;;;;;;;9.57;3.87;;;;;;;17.61;72.43;100530.00;5082461;28;20047;-71
2023/09/14 06:19:36;;;;;;;14.37;4.67;;;;;;;17.57;72.52;100538.03;5082758;28;20356;-71
2023/09/14 06:22:01;;;;;;;15.00;4.33;;;;;;;17.57;72.45;100534.47;5083234;28;20265;-71
2023/09/14 06:24:26;;;;;;;11.88;4.32;;;;;;;17.58;72.54;100536.91;5082763;28;20761;-71
2023/09/14 06:26:51;;;;;;;7.65;3.85;;;;;;;17.60;72.54;100539.38;5083075;28;20588;-71
2023/09/14 06:29:17;;;;;;;11.33;3.33;;;;;;;17.57;72.48;100540.81;5083161;28;20549;-72
2023/09/14 06:31:42;;;;;;;15.30;5.80;;;;;;;17.57;72.40;100542.72;5082591;28;20276;-71
2023/09/14 06:34:08;;;;;;;6.83;3.50;;;;;;;17.67;72.50;100555.56;5082323;28;20376;-71
2023/09/14 06:36:34;;;;;;;11.60;4.38;;;;;;;17.70;72.32;100552.22;5083203;28;20267;-77
2023/09/14 06:38:59;;;;;;;11.93;4.32;;;;;;;17.65;72.14;100555.03;5083023;28;20040;-78
2023/09/14 06:41:24;;;;;;;13.63;4.30;;;;;;;17.65;72.13;100549.53;5082962;28;20428;-77
2023/09/14 06:43:50;;;;;;;13.57;4.47;;;;;;;17.67;72.31;100552.81;5082613;28;20020;-77
2023/09/14 06:46:15;;;;;;;9.20;4.30;;;;;;;17.65;72.10;100555.88;5083165;28;20699;-78
2023/09/14 06:48:40;;;;;;;13.97;4.53;;;;;;;17.68;72.46;100559.94;5083075;28;20044;-78
2023/09/14 06:51:06;;;;;;;12.75;4.07;;;;;;;17.69;72.63;100561.59;5082922;28;20326;-77
2023/09/14 06:53:34;;;;;;;11.15;3.97;;;;;;;17.73;72.71;100565.41;5082942;28;20445;-77
2023/09/14 06:56:13;;;;;;;12.18;5.00;;;;;;;17.77;72.55;100569.25;5082901;28;20036;-77
2023/09/14 06:58:38;;;;;;;7.75;3.20;;;;;;;17.78;72.39;100565.34;5082790;28;20447;-79
2023/09/14 07:01:05;;;;;;;13.02;6.13;;;;;;;17.79;72.11;100572.53;5082592;28;20036;-78
2023/09/14 07:03:31;;;;;;;14.63;4.75;;;;;;;17.81;72.51;100569.47;5081944;28;20576;-78
2023/09/14 07:05:57;;;;;;;8.20;3.35;;;;;;;17.88;72.16;100567.16;5082054;28;20512;-78
2023/09/14 07:08:22;;;;;;;13.45;4.28;;;;;;;17.94;71.98;100567.94;5082833;28;20028;-77
2023/09/14 07:10:48;;;;;;;9.77;4.20;;;;;;;18.00;71.81;100560.41;5082531;28;20085;-78
2023/09/14 07:13:14;;;;;;;8.68;3.92;;;;;;;18.03;71.65;100568.09;5082680;28;20275;-78
2023/09/14 07:15:40;;;;;;;17.00;3.97;;;;;;;18.00;72.15;100572.25;5081904;28;20032;-78
2023/09/14 07:18:05;;;;;;;15.00;4.85;;;;;;;18.05;72.03;100569.44;5082300;28;20142;-77
2023/09/14 07:20:30;;;;;;;15.38;4.85;;;;;;;18.13;71.73;100576.22;5082427;28;20070;-79
2023/09/14 07:22:55;;;;;;;12.30;4.17;;;;;;;18.24;71.26;100565.91;5082468;28;20032;-79
2023/09/14 07:25:21;;;;;;;9.93;4.00;;;;;;;18.29;71.50;100578.81;5082013;28;20813;-73
2023/09/14 07:27:47;;;;;;;13.82;5.10;;;;;;;18.37;71.08;100580.06;5084048;28;20257;-73
2023/09/14 07:30:14;;;;;;;11.85;3.70;;;;;;;18.42;71.06;100580.00;5085627;28;20043;-72
2023/09/14 07:32:40;;;;;;;16.63;5.68;;;;;;;18.40;71.32;100585.00;5086088;28;20040;-73
2023/09/14 07:35:07;;;;;;;10.35;5.65;;;;;;;18.40;71.59;100585.00;5085470;28;20166;-73
2023/09/14 07:37:32;;;;;;;12.65;5.07;;;;;;;18.38;71.54;100581.72;5085473;28;20036;-72
2023/09/14 07:39:58;;;;;;;14.45;5.38;;;;;;;18.41;71.65;100581.13;5085706;28;20100;-72
2023/09/14 07:42:23;;;;;;;12.85;4.95;;;;;;;18.47;71.75;100577.16;5085511;28;20060;-72
2023/09/14 07:44:48;;;;;;;14.50;5.03;;;;;;;18.49;71.37;100579.66;5085468;28;20024;-72
2023/09/14 07:47:14;;;;;;;10.02;4.93;;;;;;;18.54;71.62;100580.38;5085581;28;20111;-73
2023/09/14 07:49:43;;;;;;;15.27;4.83;;;;;;;18.58;71.65;100585.28;5085603;28;20048;-72
2023/09/14 07:52:08;;;;;;;12.50;5.10;;;;;;;18.61;71.31;100595.75;5085175;28;20330;-72
2023/09/14 07:54:34;;;;;;;11.37;3.87;;;;;;;18.64;71.74;100589.63;5085512;28;20064;-72
2023/09/14 07:57:00;;;;;;;15.23;5.18;;;;;;;18.70;71.73;100590.34;5085514;28;20252;-72
2023/09/14 07:59:27;;;;;;;12.55;5.80;;;;;;;18.69;71.22;100597.84;5085782;28;20082;-72
2023/09/14 08:01:52;;;;;;;14.13;4.57;;;;;;;18.69;71.57;100597.84;5084876;28;20500;-73
2023/09/14 08:04:17;;;;;;;8.83;4.37;;;;;;;18.73;71.92;100598.84;5084622;28;20069;-72
2023/09/14 08:06:43;;;;;;;14.63;4.90;;;;;;;18.75;71.10;100593.84;5084371;28;20276;-72
2023/09/14 08:09:08;;;;;;;15.87;6.13;;;;;;;18.67;71.49;100594.56;5085542;28;20272;-81
2023/09/14 08:11:35;;;;;;;16.30;6.40;;;;;;;18.70;71.27;100587.59;5086090;28;20280;-81
2023/09/14 08:14:01;;;;;;;12.57;5.38;;;;;;;18.69;71.07;100591.50;5085146;28;20265;-82
2023/09/14 08:16:30;;;;;;;11.15;5.15;;;;;;;18.66;70.94;100590.16;5085355;28;20055;-82
2023/09/14 08:18:56;;;;;;;16.77;5.40;;;;;;;18.68;71.24;100596.19;5085020;28;20036;-81
2023/09/14 08:21:21;;;;;;;17.48;5.82;;;;;;;18.71;71.12;100592.84;5083625;28;20127;-81
2023/09/14 08:23:46;;;;;;;17.87;7.03;;;;;;;18.78;71.10;100584.97;5084749;28;20044;-81
2023/09/14 08:26:12;;;;;;;10.25;5.18;;;;;;;18.84;70.72;100587.66;5084965;28;20306;-82
2023/09/14 08:28:37;;;;;;;19.83;6.75;;;;;;;18.88;70.60;100596.97;5085101;28;20155;-81
2023/09/14 08:31:02;;;;;;;18.52;5.75;;;;;;;18.97;70.87;100588.84;5085360;28;20035;-80
2023/09/14 08:33:28;;;;;;;22.83;5.77;;;;;;;18.99;70.67;100595.72;5090716;28;20020;-82
2023/09/14 08:35:54;;;;;;;18.48;5.60;;;;;;;19.04;70.68;100594.78;5091327;28;20826;-82
2023/09/14 08:38:19;;;;;;;11.48;4.63;;;;;;;19.06;69.47;100594.50;5091812;28;20028;-80
2023/09/14 08:40:46;;;;;;;10.13;4.50;;;;;;;19.15;69.57;100602.94;5091374;28;20028;-79
2023/09/14 08:43:12;;;;;;;9.70;4.50;;;;;;;19.21;68.76;100599.78;5090741;28;20280;-81
2023/09/14 08:45:39;;;;;;;13.32;4.90;;;;;;;19.24;68.77;100601.13;5089449;28;20679;-80
2023/09/14 08:48:05;;;;;;;7.72;3.75;;;;;;;19.30;68.02;100599.09;5089562;28;20036;-79
2023/09/14 08:50:32;;;;;;;9.45;4.35;;;;;;;19.35;67.12;100601.75;5089523;28;21226;-80
2023/09/14 08:52:58;;;;;;;12.05;3.92;;;;;;;19.33;66.66;100604.00;5089556;28;20035;-81
2023/09/14 08:55:28;;;;;;;14.20;4.72;;;;;;;19.37;66.41;100605.03;5090012;28;20111;-80
2023/09/14 08:57:55;;;;;;;12.27;5.05;;;;;;;19.42;66.27;100612.41;5089525;28;20123;-80
2023/09/14 09:00:24;;;;;;;10.40;4.10;;;;;;;19.41;65.06;100600.53;5089302;28;20032;-78
2023/09/14 09:02:52;;;;;;;11.30;4.47;;;;;;;19.41;65.58;100608.00;5089636;28;20039;-79
2023/09/14 09:05:19;;;;;;;10.70;4.75;;;;;;;19.41;64.07;100605.22;5091173;28;20028;-81
2023/09/14 09:07:46;;;;;;;15.57;3.90;;;;;;;19.44;64.02;100604.63;5092094;28;20485;-79
2023/09/14 09:10:24;;;;;;;12.38;4.07;;;;;;;19.40;62.92;100598.91;5093448;28;20024;-80
2023/09/14 09:12:51;;;;;;;11.70;3.30;;;;;;;19.44;63.78;100602.72;5088179;28;21170;-79
2023/09/14 09:15:17;;;;;;;12.18;4.30;;;;;;;19.48;62.96;100597.38;5084396;28;21212;-81
2023/09/14 09:17:44;;;;;;;7.13;2.90;;;;;;;19.52;62.02;100601.19;5085854;28;20036;-79
2023/09/14 09:20:21;;;;;;;8.88;2.80;;;;;;;19.56;61.64;100601.38;5087819;28;20042;-80
2023/09/14 09:22:46;;;;;;;11.27;2.97;;;;;;;19.56;60.75;100601.38;5090049;28;20032;-78
2023/09/14 09:25:13;;;;;;;8.13;2.78;;;;;;;19.57;60.73;100591.94;5091617;28;20032;-82
2023/09/14 09:27:39;;;;;;;10.65;3.33;;;;;;;19.60;61.46;100589.41;5085572;28;20032;-80
2023/09/14 09:30:06;;;;;;;6.30;2.45;;;;;;;19.56;60.60;100591.16;5083820;28;20063;-80
2023/09/14 09:32:32;;;;;;;6.97;3.35;;;;;;;19.58;61.20;100588.06;5082620;28;20393;-75
2023/09/14 09:35:15;;;;;;;10.70;2.80;;;;;;;19.60;60.95;100591.34;5083298;28;20036;-76
2023/09/14 09:37:40;;;;;;;10.02;2.20;;;;;;;19.60;61.32;100594.94;5083631;28;20421;-75
2023/09/14 09:40:11;;;;;;;5.40;2.15;;;;;;;19.64;60.74;100591.53;5083908;28;20064;-74
2023/09/14 09:42:37;;;;;;;9.93;3.47;;;;;;;19.68;60.53;100585.09;5083432;28;20460;-74
2023/09/14 09:45:03;;;;;;;10.30;2.87;;;;;;;19.65;59.64;100582.94;5083296;28;20217;-78
2023/09/14 09:47:32;;;;;;;12.95;2.65;;;;;;;19.67;60.10;100586.22;5083606;28;20713;-77
2023/09/14 09:49:57;;;;;;;8.60;2.83;;;;;;;19.72;60.27;100582.53;5083367;28;20031;-77
2023/09/14 09:52:23;;;;;;;8.43;2.78;;;;;;;19.69;59.84;100583.97;5082178;28;20481;-78
2023/09/14 09:54:49;;;;;;;8.77;3.10;;;;;;;19.63;59.82;100584.38;5082564;28;20539;-77
2023/09/14 09:57:15;;;;;;;10.00;3.05;;;;;;;19.60;60.29;100592.19;5082928;28;20028;-74
2023/09/14 09:59:46;;;;;;;8.02;2.95;;;;;;;19.68;60.51;100581.50;5083057;28;20035;-74
2023/09/14 10:02:12;;;;;;;7.88;3.25;;;;;;;19.65;60.54;100574.63;5082841;28;20059;-74
2023/09/14 10:04:37;;;;;;;11.98;2.92;;;;;;;19.69;60.80;100592.25;5082922;28;20032;-74
2023/09/14 10:07:06;;;;;;;8.00;3.07;;;;;;;19.74;61.35;100585.81;5082410;28;20044;-74
2023/09/14 10:09:35;;;;;;;12.05;3.85;;;;;;;19.82;59.86;100581.50;5082716;28;20369;-75
2023/09/14 10:12:03;;;;;;;12.73;3.40;;;;;;;19.91;60.88;100579.66;5082631;28;20039;-74
2023/09/14 10:14:32;;;;;;;10.88;3.85;;;;;;;20.01;60.34;100577.81;5081972;28;20115;-74
2023/09/14 10:17:00;;;;;;;7.93;2.88;;;;;;;20.07;59.75;100576.56;5080288;28;20190;-73
2023/09/14 10:19:27;;;;;;;8.10;2.40;;;;;;;20.13;58.63;100569.00;5082985;28;20020;-73
2023/09/14 10:21:55;;;;;;;7.55;3.47;;;;;;;20.18;58.93;100572.47;5083327;28;20043;-72
2023/09/14 10:24:20;;;;;;;12.05;3.40;;;;;;;20.17;58.04;100572.78;5082042;28;20044;-72
2023/09/14 10:26:47;;;;;;;9.20;3.28;;;;;;;20.21;58.08;100575.75;5082745;28;20104;-72
2023/09/14 10:29:13;;;;;;;6.40;2.53;;;;;;;20.23;57.62;100568.78;5083032;28;20034;-73
2023/09/14 10:31:42;;;;;;;5.82;2.50;;;;;;;20.26;57.64;100573.69;5080889;28;20039;-72
2023/09/14 10:34:08;;;;;;;6.97;2.25;;;;;;;20.27;56.58;100571.75;5082193;28;20092;-72
2023/09/14 10:36:35;;;;;;;10.68;2.90;;;;;;;20.24;56.30;100575.94;5082521;28;20036;-72
2023/09/14 10:39:01;;;;;;;5.85;2.28;;;;;;;20.25;56.56;100562.94;5082385;28;20676;-73
2023/09/14 10:41:27;;;;;;;11.32;2.50;;;;;;;20.30;57.19;100573.88;5082549;28;20036;-74
2023/09/14 10:43:56;;;;;;;7.32;2.15;;;;;;;20.33;55.61;100576.03;5082184;28;20489;-72
2023/09/14 10:46:26;;;;;;;7.88;2.75;;;;;;;20.29;55.26;100566.72;5082294;28;20032;-73
2023/09/14 10:48:55;;;;;;;7.07;2.33;;;;;;;20.28;56.00;100576.13;5082400;28;20058;-72
2023/09/14 10:51:21;;;;;;;7.43;2.30;;;;;;;20.28;55.07;100565.06;5082002;28;20063;-71
2023/09/14 10:53:47;;;;;;;7.03;2.33;;;;;;;20.28;54.79;100565.06;5082114;28;20059;-71
2023/09/14 10:56:22;;;;;;;7.15;2.45;;;;;;;20.33;55.21;100567.72;5082392;28;20043;-77
2023/09/14 10:58:53;;;;;;;5.05;1.55;;;;;;;20.40;55.02;100568.09;5082841;28;20024;-76
2023/09/14 11:01:26;;;;;;;5.45;2.42;;;;;;;20.41;55.09;100558.69;5082767;28;20712;-75
2023/09/14 11:04:15;;;;;;;6.37;2.13;;;;;;;20.44;54.27;100560.03;5086122;28;20031;-74
2023/09/14 11:06:44;;;;;;;6.88;2.35;;;;;;;20.44;54.66;100567.50;5086249;28;20291;-73
2023/09/14 11:09:09;;;;;;;8.43;2.33;;;;;;;20.45;54.91;100555.28;5086433;28;20234;-72
2023/09/14 11:11:39;;;;;;;9.13;2.20;;;;;;;20.38;54.84;100559.28;5086881;28;20797;-71
2023/09/14 11:14:08;;;;;;;5.18;2.15;;;;;;;20.39;55.08;100555.41;5086082;28;20900;-72
2023/09/14 11:16:53;;;;;;;6.75;2.53;;;;;;;20.43;54.60;100550.06;5086820;28;20205;-71